sensor_id;sensor_type;location;lat;lon;timestamp;P1;durP1;ratioP1;P2;durP2;ratioP2
42754;SDS011;28407;51.830;5.684;2022-08-14T00:00:57;2.15;;;1.48;;
42754;SDS011;28407;51.830;5.684;2022-08-14T00:03:00;2.85;;;1.52;;
42754;SDS011;28407;51.830;5.684;2022-08-14T00:05:00;2.05;;;1.30;;
42754;SDS011;28407;51.830;5.684;2022-08-14T00:07:04;3.25;;;1.65;;
42754;SDS011;28407;51.830;5.684;2022-08-14T00:09:05;3.88;;;1.83;;
42754;SDS011;28407;51.830;5.684;2022-08-14T00:11:06;2.83;;;1.65;;
42754;SDS011;28407;51.830;5.684;2022-08-14T00:13:06;2.42;;;1.63;;
42754;SDS011;28407;51.830;5.684;2022-08-14T00:15:10;2.40;;;1.50;;
42754;SDS011;28407;51.830;5.684;2022-08-14T00:17:14;2.55;;;1.40;;
42754;SDS011;28407;51.830;5.684;2022-08-14T00:19:15;3.03;;;1.65;;
42754;SDS011;28407;51.830;5.684;2022-08-14T00:21:15;3.30;;;1.60;;
42754;SDS011;28407;51.830;5.684;2022-08-14T00:23:16;1.98;;;1.40;;
42754;SDS011;28407;51.830;5.684;2022-08-14T00:25:18;2.58;;;1.90;;
42754;SDS011;28407;51.830;5.684;2022-08-14T00:27:18;2.30;;;1.52;;
42754;SDS011;28407;51.830;5.684;2022-08-14T00:29:19;2.33;;;1.80;;
42754;SDS011;28407;51.830;5.684;2022-08-14T00:31:20;2.78;;;1.42;;
42754;SDS011;28407;51.830;5.684;2022-08-14T00:33:24;2.55;;;1.63;;
42754;SDS011;28407;51.830;5.684;2022-08-14T00:35:26;2.95;;;1.60;;
42754;SDS011;28407;51.830;5.684;2022-08-14T00:37:27;3.33;;;1.90;;
42754;SDS011;28407;51.830;5.684;2022-08-14T00:39:28;2.23;;;1.50;;
42754;SDS011;28407;51.830;5.684;2022-08-14T00:41:30;3.80;;;1.27;;
42754;SDS011;28407;51.830;5.684;2022-08-14T00:43:32;2.45;;;1.58;;
42754;SDS011;28407;51.830;5.684;2022-08-14T00:45:34;2.28;;;1.45;;
42754;SDS011;28407;51.830;5.684;2022-08-14T00:47:35;2.63;;;1.80;;
42754;SDS011;28407;51.830;5.684;2022-08-14T00:49:35;2.90;;;1.58;;
42754;SDS011;28407;51.830;5.684;2022-08-14T00:51:36;2.65;;;1.52;;
42754;SDS011;28407;51.830;5.684;2022-08-14T00:53:37;3.80;;;1.57;;
42754;SDS011;28407;51.830;5.684;2022-08-14T00:55:39;2.47;;;1.52;;
42754;SDS011;28407;51.830;5.684;2022-08-14T00:57:41;3.85;;;2.20;;
42754;SDS011;28407;51.830;5.684;2022-08-14T00:59:42;2.50;;;1.80;;
42754;SDS011;28407;51.830;5.684;2022-08-14T01:01:44;2.80;;;1.83;;
42754;SDS011;28407;51.830;5.684;2022-08-14T01:03:45;2.60;;;1.70;;
42754;SDS011;28407;51.830;5.684;2022-08-14T01:05:47;2.20;;;1.70;;
42754;SDS011;28407;51.830;5.684;2022-08-14T01:07:53;3.00;;;1.63;;
42754;SDS011;28407;51.830;5.684;2022-08-14T01:09:58;3.00;;;1.67;;
42754;SDS011;28407;51.830;5.684;2022-08-14T01:12:04;2.95;;;2.00;;
42754;SDS011;28407;51.830;5.684;2022-08-14T01:14:05;3.55;;;1.77;;
42754;SDS011;28407;51.830;5.684;2022-08-14T01:16:07;2.47;;;1.73;;
42754;SDS011;28407;51.830;5.684;2022-08-14T01:18:10;3.13;;;2.17;;
42754;SDS011;28407;51.830;5.684;2022-08-14T01:20:35;2.95;;;1.95;;
42754;SDS011;28407;51.830;5.684;2022-08-14T01:22:54;3.10;;;1.63;;
42754;SDS011;28407;51.830;5.684;2022-08-14T01:24:55;2.30;;;1.60;;
42754;SDS011;28407;51.830;5.684;2022-08-14T01:26:57;3.25;;;1.92;;
42754;SDS011;28407;51.830;5.684;2022-08-14T01:28:58;2.53;;;1.60;;
42754;SDS011;28407;51.830;5.684;2022-08-14T01:30:59;3.00;;;1.90;;
42754;SDS011;28407;51.830;5.684;2022-08-14T01:33:00;2.35;;;1.75;;
42754;SDS011;28407;51.830;5.684;2022-08-14T01:35:01;2.63;;;1.60;;
42754;SDS011;28407;51.830;5.684;2022-08-14T01:37:06;4.03;;;2.50;;
42754;SDS011;28407;51.830;5.684;2022-08-14T01:39:10;4.15;;;1.80;;
42754;SDS011;28407;51.830;5.684;2022-08-14T01:41:15;3.10;;;2.08;;
42754;SDS011;28407;51.830;5.684;2022-08-14T01:43:19;3.42;;;1.73;;
42754;SDS011;28407;51.830;5.684;2022-08-14T01:45:20;3.00;;;2.20;;
42754;SDS011;28407;51.830;5.684;2022-08-14T01:47:21;2.97;;;1.92;;
42754;SDS011;28407;51.830;5.684;2022-08-14T01:49:21;2.80;;;1.88;;
42754;SDS011;28407;51.830;5.684;2022-08-14T01:51:23;2.13;;;1.40;;
42754;SDS011;28407;51.830;5.684;2022-08-14T01:53:28;3.20;;;2.20;;
42754;SDS011;28407;51.830;5.684;2022-08-14T01:55:31;2.97;;;2.00;;
42754;SDS011;28407;51.830;5.684;2022-08-14T01:57:32;2.72;;;2.20;;
42754;SDS011;28407;51.830;5.684;2022-08-14T01:59:36;2.50;;;1.63;;
42754;SDS011;28407;51.830;5.684;2022-08-14T02:01:39;3.67;;;1.58;;
42754;SDS011;28407;51.830;5.684;2022-08-14T02:03:40;3.47;;;2.35;;
42754;SDS011;28407;51.830;5.684;2022-08-14T02:05:41;2.70;;;1.87;;
42754;SDS011;28407;51.830;5.684;2022-08-14T02:07:42;3.63;;;2.15;;
42754;SDS011;28407;51.830;5.684;2022-08-14T02:09:44;3.35;;;2.03;;
42754;SDS011;28407;51.830;5.684;2022-08-14T02:11:44;2.70;;;2.00;;
42754;SDS011;28407;51.830;5.684;2022-08-14T02:13:47;2.55;;;1.83;;
42754;SDS011;28407;51.830;5.684;2022-08-14T02:15:57;3.53;;;1.67;;
42754;SDS011;28407;51.830;5.684;2022-08-14T02:17:59;3.65;;;2.42;;
42754;SDS011;28407;51.830;5.684;2022-08-14T02:20:00;2.87;;;2.10;;
42754;SDS011;28407;51.830;5.684;2022-08-14T02:22:01;2.47;;;1.85;;
42754;SDS011;28407;51.830;5.684;2022-08-14T02:24:03;2.25;;;1.85;;
42754;SDS011;28407;51.830;5.684;2022-08-14T02:26:13;2.65;;;1.90;;
42754;SDS011;28407;51.830;5.684;2022-08-14T02:28:16;2.95;;;2.15;;
42754;SDS011;28407;51.830;5.684;2022-08-14T02:30:16;2.40;;;1.70;;
42754;SDS011;28407;51.830;5.684;2022-08-14T02:32:17;3.15;;;2.13;;
42754;SDS011;28407;51.830;5.684;2022-08-14T02:36:31;3.08;;;1.83;;
42754;SDS011;28407;51.830;5.684;2022-08-14T02:38:31;3.70;;;2.63;;
42754;SDS011;28407;51.830;5.684;2022-08-14T02:40:32;4.18;;;1.80;;
42754;SDS011;28407;51.830;5.684;2022-08-14T02:42:33;6.22;;;2.13;;
42754;SDS011;28407;51.830;5.684;2022-08-14T02:44:34;2.95;;;2.08;;
42754;SDS011;28407;51.830;5.684;2022-08-14T02:46:35;2.58;;;1.90;;
42754;SDS011;28407;51.830;5.684;2022-08-14T02:48:43;3.45;;;2.30;;
42754;SDS011;28407;51.830;5.684;2022-08-14T02:50:44;3.42;;;2.40;;
42754;SDS011;28407;51.830;5.684;2022-08-14T02:52:45;2.93;;;2.23;;
42754;SDS011;28407;51.830;5.684;2022-08-14T02:54:45;3.22;;;2.45;;
42754;SDS011;28407;51.830;5.684;2022-08-14T02:56:46;3.72;;;2.25;;
42754;SDS011;28407;51.830;5.684;2022-08-14T02:58:48;3.25;;;2.35;;
42754;SDS011;28407;51.830;5.684;2022-08-14T03:00:50;3.67;;;2.58;;
42754;SDS011;28407;51.830;5.684;2022-08-14T03:02:50;2.47;;;2.05;;
42754;SDS011;28407;51.830;5.684;2022-08-14T03:04:51;6.40;;;2.45;;
42754;SDS011;28407;51.830;5.684;2022-08-14T03:06:54;3.42;;;3.13;;
42754;SDS011;28407;51.830;5.684;2022-08-14T03:08:55;3.30;;;2.20;;
42754;SDS011;28407;51.830;5.684;2022-08-14T03:10:56;3.05;;;2.08;;
42754;SDS011;28407;51.830;5.684;2022-08-14T03:12:59;4.50;;;2.60;;
42754;SDS011;28407;51.830;5.684;2022-08-14T03:15:03;3.35;;;2.33;;
42754;SDS011;28407;51.830;5.684;2022-08-14T03:17:09;2.95;;;2.30;;
42754;SDS011;28407;51.830;5.684;2022-08-14T03:19:13;3.22;;;2.28;;
42754;SDS011;28407;51.830;5.684;2022-08-14T03:21:14;4.28;;;2.65;;
42754;SDS011;28407;51.830;5.684;2022-08-14T03:23:17;2.88;;;2.03;;
42754;SDS011;28407;51.830;5.684;2022-08-14T03:25:18;3.25;;;2.75;;
42754;SDS011;28407;51.830;5.684;2022-08-14T03:27:21;3.72;;;2.80;;
42754;SDS011;28407;51.830;5.684;2022-08-14T03:29:21;3.63;;;2.55;;
42754;SDS011;28407;51.830;5.684;2022-08-14T03:31:23;3.83;;;2.45;;
42754;SDS011;28407;51.830;5.684;2022-08-14T03:33:24;3.30;;;2.65;;
42754;SDS011;28407;51.830;5.684;2022-08-14T03:35:27;3.17;;;2.35;;
42754;SDS011;28407;51.830;5.684;2022-08-14T03:37:29;3.97;;;2.83;;
42754;SDS011;28407;51.830;5.684;2022-08-14T03:39:30;3.55;;;2.85;;
42754;SDS011;28407;51.830;5.684;2022-08-14T03:41:30;2.97;;;2.35;;
42754;SDS011;28407;51.830;5.684;2022-08-14T03:43:31;3.28;;;2.53;;
42754;SDS011;28407;51.830;5.684;2022-08-14T03:45:32;3.75;;;2.88;;
42754;SDS011;28407;51.830;5.684;2022-08-14T03:47:34;3.40;;;2.45;;
42754;SDS011;28407;51.830;5.684;2022-08-14T03:49:39;4.30;;;2.88;;
42754;SDS011;28407;51.830;5.684;2022-08-14T03:51:42;3.85;;;3.03;;
42754;SDS011;28407;51.830;5.684;2022-08-14T03:53:43;3.72;;;2.65;;
42754;SDS011;28407;51.830;5.684;2022-08-14T03:55:45;3.25;;;2.72;;
42754;SDS011;28407;51.830;5.684;2022-08-14T03:57:46;3.40;;;2.50;;
42754;SDS011;28407;51.830;5.684;2022-08-14T03:59:47;4.32;;;3.20;;
42754;SDS011;28407;51.830;5.684;2022-08-14T04:01:47;3.55;;;2.80;;
42754;SDS011;28407;51.830;5.684;2022-08-14T04:03:53;3.53;;;2.60;;
42754;SDS011;28407;51.830;5.684;2022-08-14T04:05:54;3.47;;;2.10;;
42754;SDS011;28407;51.830;5.684;2022-08-14T04:07:55;3.78;;;2.58;;
42754;SDS011;28407;51.830;5.684;2022-08-14T04:09:57;3.63;;;2.85;;
42754;SDS011;28407;51.830;5.684;2022-08-14T04:11:57;3.55;;;2.85;;
42754;SDS011;28407;51.830;5.684;2022-08-14T04:13:58;3.60;;;2.70;;
42754;SDS011;28407;51.830;5.684;2022-08-14T04:16:04;4.03;;;3.03;;
42754;SDS011;28407;51.830;5.684;2022-08-14T04:18:07;4.32;;;2.75;;
42754;SDS011;28407;51.830;5.684;2022-08-14T04:20:08;3.60;;;2.60;;
42754;SDS011;28407;51.830;5.684;2022-08-14T04:22:09;4.05;;;2.70;;
42754;SDS011;28407;51.830;5.684;2022-08-14T04:24:09;4.15;;;2.90;;
42754;SDS011;28407;51.830;5.684;2022-08-14T04:26:13;3.97;;;3.10;;
42754;SDS011;28407;51.830;5.684;2022-08-14T04:28:15;4.43;;;3.03;;
42754;SDS011;28407;51.830;5.684;2022-08-14T04:30:16;4.28;;;3.03;;
42754;SDS011;28407;51.830;5.684;2022-08-14T04:32:16;4.35;;;3.45;;
42754;SDS011;28407;51.830;5.684;2022-08-14T04:34:18;3.92;;;2.92;;
42754;SDS011;28407;51.830;5.684;2022-08-14T04:36:18;3.75;;;2.95;;
42754;SDS011;28407;51.830;5.684;2022-08-14T04:38:20;4.43;;;3.50;;
42754;SDS011;28407;51.830;5.684;2022-08-14T04:40:39;5.47;;;3.60;;
42754;SDS011;28407;51.830;5.684;2022-08-14T04:42:58;3.60;;;2.83;;
42754;SDS011;28407;51.830;5.684;2022-08-14T04:45:20;4.10;;;3.30;;
42754;SDS011;28407;51.830;5.684;2022-08-14T04:47:25;5.18;;;3.67;;
42754;SDS011;28407;51.830;5.684;2022-08-14T04:49:44;5.28;;;3.75;;
42754;SDS011;28407;51.830;5.684;2022-08-14T04:51:45;4.13;;;3.35;;
42754;SDS011;28407;51.830;5.684;2022-08-14T04:53:47;4.53;;;3.33;;
42754;SDS011;28407;51.830;5.684;2022-08-14T04:55:48;4.55;;;3.05;;
42754;SDS011;28407;51.830;5.684;2022-08-14T04:57:50;4.43;;;3.40;;
42754;SDS011;28407;51.830;5.684;2022-08-14T04:59:51;3.80;;;2.97;;
42754;SDS011;28407;51.830;5.684;2022-08-14T05:01:51;5.25;;;3.50;;
42754;SDS011;28407;51.830;5.684;2022-08-14T05:03:53;5.18;;;3.50;;
42754;SDS011;28407;51.830;5.684;2022-08-14T05:05:55;4.43;;;3.75;;
42754;SDS011;28407;51.830;5.684;2022-08-14T05:08:04;4.35;;;3.53;;
42754;SDS011;28407;51.830;5.684;2022-08-14T05:10:11;5.03;;;4.03;;
42754;SDS011;28407;51.830;5.684;2022-08-14T05:12:11;4.40;;;3.65;;
42754;SDS011;28407;51.830;5.684;2022-08-14T05:14:12;4.60;;;3.65;;
42754;SDS011;28407;51.830;5.684;2022-08-14T05:16:13;4.63;;;3.45;;
42754;SDS011;28407;51.830;5.684;2022-08-14T05:18:15;6.88;;;3.53;;
42754;SDS011;28407;51.830;5.684;2022-08-14T05:20:17;4.47;;;3.83;;
42754;SDS011;28407;51.830;5.684;2022-08-14T05:22:18;5.55;;;4.30;;
42754;SDS011;28407;51.830;5.684;2022-08-14T05:24:19;5.47;;;3.90;;
42754;SDS011;28407;51.830;5.684;2022-08-14T05:26:19;4.68;;;3.80;;
42754;SDS011;28407;51.830;5.684;2022-08-14T05:28:21;5.82;;;4.47;;
42754;SDS011;28407;51.830;5.684;2022-08-14T05:30:24;4.72;;;4.03;;
42754;SDS011;28407;51.830;5.684;2022-08-14T05:32:25;5.18;;;3.83;;
42754;SDS011;28407;51.830;5.684;2022-08-14T05:34:25;4.70;;;3.50;;
42754;SDS011;28407;51.830;5.684;2022-08-14T05:36:29;4.47;;;3.55;;
42754;SDS011;28407;51.830;5.684;2022-08-14T05:38:30;5.57;;;4.05;;
42754;SDS011;28407;51.830;5.684;2022-08-14T05:40:35;6.15;;;4.57;;
42754;SDS011;28407;51.830;5.684;2022-08-14T05:42:35;4.80;;;3.60;;
42754;SDS011;28407;51.830;5.684;2022-08-14T05:44:36;3.95;;;3.55;;
42754;SDS011;28407;51.830;5.684;2022-08-14T05:46:37;7.32;;;3.50;;
42754;SDS011;28407;51.830;5.684;2022-08-14T05:48:38;5.38;;;4.30;;
42754;SDS011;28407;51.830;5.684;2022-08-14T05:50:38;5.32;;;4.20;;
42754;SDS011;28407;51.830;5.684;2022-08-14T05:52:39;5.00;;;3.63;;
42754;SDS011;28407;51.830;5.684;2022-08-14T05:54:39;5.50;;;4.50;;
42754;SDS011;28407;51.830;5.684;2022-08-14T05:56:41;5.15;;;4.53;;
42754;SDS011;28407;51.830;5.684;2022-08-14T05:58:42;5.22;;;3.83;;
42754;SDS011;28407;51.830;5.684;2022-08-14T06:00:43;3.88;;;3.13;;
42754;SDS011;28407;51.830;5.684;2022-08-14T06:02:45;6.28;;;3.80;;
42754;SDS011;28407;51.830;5.684;2022-08-14T06:04:46;4.63;;;3.67;;
42754;SDS011;28407;51.830;5.684;2022-08-14T06:06:47;4.20;;;3.40;;
42754;SDS011;28407;51.830;5.684;2022-08-14T06:08:47;4.30;;;3.80;;
42754;SDS011;28407;51.830;5.684;2022-08-14T06:10:52;5.40;;;4.38;;
42754;SDS011;28407;51.830;5.684;2022-08-14T06:12:58;4.88;;;3.75;;
42754;SDS011;28407;51.830;5.684;2022-08-14T06:15:02;4.40;;;3.78;;
42754;SDS011;28407;51.830;5.684;2022-08-14T06:17:05;4.97;;;3.88;;
42754;SDS011;28407;51.830;5.684;2022-08-14T06:19:06;5.07;;;4.23;;
42754;SDS011;28407;51.830;5.684;2022-08-14T06:21:06;4.63;;;4.13;;
42754;SDS011;28407;51.830;5.684;2022-08-14T06:23:07;5.63;;;4.43;;
42754;SDS011;28407;51.830;5.684;2022-08-14T06:25:08;7.63;;;5.50;;
42754;SDS011;28407;51.830;5.684;2022-08-14T06:27:10;4.82;;;4.07;;
42754;SDS011;28407;51.830;5.684;2022-08-14T06:29:10;4.82;;;3.92;;
42754;SDS011;28407;51.830;5.684;2022-08-14T06:31:11;7.50;;;4.25;;
42754;SDS011;28407;51.830;5.684;2022-08-14T06:33:12;4.68;;;3.88;;
42754;SDS011;28407;51.830;5.684;2022-08-14T06:35:14;5.57;;;4.35;;
42754;SDS011;28407;51.830;5.684;2022-08-14T06:37:17;4.68;;;4.15;;
42754;SDS011;28407;51.830;5.684;2022-08-14T06:39:17;4.53;;;3.60;;
42754;SDS011;28407;51.830;5.684;2022-08-14T06:41:18;4.97;;;3.85;;
42754;SDS011;28407;51.830;5.684;2022-08-14T06:43:19;4.85;;;3.13;;
42754;SDS011;28407;51.830;5.684;2022-08-14T06:45:20;4.60;;;3.10;;
42754;SDS011;28407;51.830;5.684;2022-08-14T06:47:20;4.50;;;3.78;;
42754;SDS011;28407;51.830;5.684;2022-08-14T06:49:21;4.18;;;3.58;;
42754;SDS011;28407;51.830;5.684;2022-08-14T06:51:24;4.60;;;3.47;;
42754;SDS011;28407;51.830;5.684;2022-08-14T06:53:24;5.38;;;3.60;;
42754;SDS011;28407;51.830;5.684;2022-08-14T06:55:25;3.83;;;2.80;;
42754;SDS011;28407;51.830;5.684;2022-08-14T06:57:33;3.55;;;2.70;;
42754;SDS011;28407;51.830;5.684;2022-08-14T06:59:41;4.07;;;3.22;;
42754;SDS011;28407;51.830;5.684;2022-08-14T07:01:41;4.45;;;3.45;;
42754;SDS011;28407;51.830;5.684;2022-08-14T07:04:01;3.38;;;2.75;;
42754;SDS011;28407;51.830;5.684;2022-08-14T07:06:21;3.88;;;3.00;;
42754;SDS011;28407;51.830;5.684;2022-08-14T07:08:24;3.67;;;2.97;;
42754;SDS011;28407;51.830;5.684;2022-08-14T07:10:26;4.10;;;3.17;;
42754;SDS011;28407;51.830;5.684;2022-08-14T07:12:27;3.85;;;3.05;;
42754;SDS011;28407;51.830;5.684;2022-08-14T07:14:28;4.30;;;3.33;;
42754;SDS011;28407;51.830;5.684;2022-08-14T07:16:28;4.85;;;3.10;;
42754;SDS011;28407;51.830;5.684;2022-08-14T07:18:30;3.83;;;3.08;;
42754;SDS011;28407;51.830;5.684;2022-08-14T07:20:32;4.05;;;3.22;;
42754;SDS011;28407;51.830;5.684;2022-08-14T07:22:32;4.00;;;2.83;;
42754;SDS011;28407;51.830;5.684;2022-08-14T07:24:34;3.97;;;3.08;;
42754;SDS011;28407;51.830;5.684;2022-08-14T07:26:34;4.13;;;2.78;;
42754;SDS011;28407;51.830;5.684;2022-08-14T07:28:38;4.30;;;3.15;;
42754;SDS011;28407;51.830;5.684;2022-08-14T07:30:40;3.50;;;2.60;;
42754;SDS011;28407;51.830;5.684;2022-08-14T07:32:41;4.05;;;2.90;;
42754;SDS011;28407;51.830;5.684;2022-08-14T07:34:42;5.43;;;2.83;;
42754;SDS011;28407;51.830;5.684;2022-08-14T07:36:43;3.20;;;2.70;;
42754;SDS011;28407;51.830;5.684;2022-08-14T07:38:44;3.58;;;2.83;;
42754;SDS011;28407;51.830;5.684;2022-08-14T07:40:44;3.78;;;3.15;;
42754;SDS011;28407;51.830;5.684;2022-08-14T07:42:46;3.42;;;2.50;;
42754;SDS011;28407;51.830;5.684;2022-08-14T07:44:46;4.03;;;2.55;;
42754;SDS011;28407;51.830;5.684;2022-08-14T07:46:47;3.38;;;2.25;;
42754;SDS011;28407;51.830;5.684;2022-08-14T07:48:48;3.90;;;2.88;;
42754;SDS011;28407;51.830;5.684;2022-08-14T07:50:48;4.43;;;3.03;;
42754;SDS011;28407;51.830;5.684;2022-08-14T07:52:49;3.38;;;2.72;;
42754;SDS011;28407;51.830;5.684;2022-08-14T07:54:50;3.20;;;2.70;;
42754;SDS011;28407;51.830;5.684;2022-08-14T07:56:51;4.00;;;2.88;;
42754;SDS011;28407;51.830;5.684;2022-08-14T07:58:52;3.28;;;2.50;;
42754;SDS011;28407;51.830;5.684;2022-08-14T08:00:55;3.55;;;2.38;;
42754;SDS011;28407;51.830;5.684;2022-08-14T08:02:56;4.13;;;2.92;;
42754;SDS011;28407;51.830;5.684;2022-08-14T08:04:58;3.95;;;2.90;;
42754;SDS011;28407;51.830;5.684;2022-08-14T08:06:59;3.78;;;2.92;;
42754;SDS011;28407;51.830;5.684;2022-08-14T08:09:01;3.63;;;2.80;;
42754;SDS011;28407;51.830;5.684;2022-08-14T08:11:03;4.88;;;3.10;;
42754;SDS011;28407;51.830;5.684;2022-08-14T08:13:17;3.45;;;2.78;;
42754;SDS011;28407;51.830;5.684;2022-08-14T08:15:20;3.58;;;2.72;;
42754;SDS011;28407;51.830;5.684;2022-08-14T08:17:22;3.45;;;2.67;;
42754;SDS011;28407;51.830;5.684;2022-08-14T08:19:23;4.70;;;2.73;;
42754;SDS011;28407;51.830;5.684;2022-08-14T08:21:24;3.17;;;2.53;;
42754;SDS011;28407;51.830;5.684;2022-08-14T08:23:28;3.43;;;2.40;;
42754;SDS011;28407;51.830;5.684;2022-08-14T08:25:34;4.07;;;2.88;;
42754;SDS011;28407;51.830;5.684;2022-08-14T08:27:37;4.75;;;3.20;;
42754;SDS011;28407;51.830;5.684;2022-08-14T08:29:38;5.25;;;2.78;;
42754;SDS011;28407;51.830;5.684;2022-08-14T08:31:45;3.15;;;2.13;;
42754;SDS011;28407;51.830;5.684;2022-08-14T08:33:51;2.85;;;2.53;;
42754;SDS011;28407;51.830;5.684;2022-08-14T08:35:53;3.28;;;2.22;;
42754;SDS011;28407;51.830;5.684;2022-08-14T08:40:07;3.40;;;2.80;;
42754;SDS011;28407;51.830;5.684;2022-08-14T08:42:08;3.10;;;2.50;;
42754;SDS011;28407;51.830;5.684;2022-08-14T08:44:09;3.08;;;2.38;;
42754;SDS011;28407;51.830;5.684;2022-08-14T08:46:11;4.90;;;2.90;;
42754;SDS011;28407;51.830;5.684;2022-08-14T08:48:19;4.05;;;2.70;;
42754;SDS011;28407;51.830;5.684;2022-08-14T08:50:21;3.90;;;2.28;;
42754;SDS011;28407;51.830;5.684;2022-08-14T08:52:29;4.35;;;2.97;;
42754;SDS011;28407;51.830;5.684;2022-08-14T08:54:29;3.63;;;2.53;;
42754;SDS011;28407;51.830;5.684;2022-08-14T08:58:36;4.20;;;2.60;;
42754;SDS011;28407;51.830;5.684;2022-08-14T09:00:37;4.88;;;2.83;;
42754;SDS011;28407;51.830;5.684;2022-08-14T09:02:51;3.35;;;2.70;;
42754;SDS011;28407;51.830;5.684;2022-08-14T09:05:00;3.63;;;2.78;;
42754;SDS011;28407;51.830;5.684;2022-08-14T09:07:02;3.47;;;2.58;;
42754;SDS011;28407;51.830;5.684;2022-08-14T09:11:15;3.70;;;2.60;;
42754;SDS011;28407;51.830;5.684;2022-08-14T09:13:17;3.60;;;2.88;;
42754;SDS011;28407;51.830;5.684;2022-08-14T09:15:19;5.13;;;3.40;;
42754;SDS011;28407;51.830;5.684;2022-08-14T09:17:20;3.90;;;2.90;;
42754;SDS011;28407;51.830;5.684;2022-08-14T09:19:21;4.43;;;2.53;;
42754;SDS011;28407;51.830;5.684;2022-08-14T09:21:22;5.07;;;3.08;;
42754;SDS011;28407;51.830;5.684;2022-08-14T09:23:23;3.67;;;2.58;;
42754;SDS011;28407;51.830;5.684;2022-08-14T09:25:23;3.67;;;3.05;;
42754;SDS011;28407;51.830;5.684;2022-08-14T09:27:24;3.92;;;2.97;;
42754;SDS011;28407;51.830;5.684;2022-08-14T09:29:25;3.55;;;2.80;;
42754;SDS011;28407;51.830;5.684;2022-08-14T09:31:26;3.80;;;2.90;;
42754;SDS011;28407;51.830;5.684;2022-08-14T09:41:08;5.43;;;3.03;;
42754;SDS011;28407;51.830;5.684;2022-08-14T09:43:25;3.45;;;2.80;;
42754;SDS011;28407;51.830;5.684;2022-08-14T09:45:50;3.95;;;2.85;;
42754;SDS011;28407;51.830;5.684;2022-08-14T09:47:56;5.18;;;3.15;;
42754;SDS011;28407;51.830;5.684;2022-08-14T09:49:57;4.32;;;3.00;;
42754;SDS011;28407;51.830;5.684;2022-08-14T09:54:05;5.38;;;3.60;;
42754;SDS011;28407;51.830;5.684;2022-08-14T09:56:10;4.88;;;3.03;;
42754;SDS011;28407;51.830;5.684;2022-08-14T09:58:14;4.55;;;3.08;;
42754;SDS011;28407;51.830;5.684;2022-08-14T10:00:17;3.63;;;2.72;;
42754;SDS011;28407;51.830;5.684;2022-08-14T10:02:23;4.32;;;2.88;;
42754;SDS011;28407;51.830;5.684;2022-08-14T10:04:30;2.97;;;2.47;;
42754;SDS011;28407;51.830;5.684;2022-08-14T10:06:31;3.50;;;2.87;;
42754;SDS011;28407;51.830;5.684;2022-08-14T10:10:52;4.15;;;2.75;;
42754;SDS011;28407;51.830;5.684;2022-08-14T10:12:53;4.23;;;3.30;;
42754;SDS011;28407;51.830;5.684;2022-08-14T10:14:54;3.75;;;2.97;;
42754;SDS011;28407;51.830;5.684;2022-08-14T10:16:55;4.33;;;3.20;;
42754;SDS011;28407;51.830;5.684;2022-08-14T10:21:06;3.33;;;2.58;;
42754;SDS011;28407;51.830;5.684;2022-08-14T10:23:15;3.17;;;2.50;;
42754;SDS011;28407;51.830;5.684;2022-08-14T10:25:17;3.45;;;2.40;;
42754;SDS011;28407;51.830;5.684;2022-08-14T10:27:21;3.67;;;2.63;;
42754;SDS011;28407;51.830;5.684;2022-08-14T10:29:33;3.30;;;2.40;;
42754;SDS011;28407;51.830;5.684;2022-08-14T10:31:38;3.35;;;2.38;;
42754;SDS011;28407;51.830;5.684;2022-08-14T10:33:39;3.30;;;2.37;;
42754;SDS011;28407;51.830;5.684;2022-08-14T10:35:40;3.63;;;2.50;;
42754;SDS011;28407;51.830;5.684;2022-08-14T10:37:46;3.50;;;2.55;;
42754;SDS011;28407;51.830;5.684;2022-08-14T10:39:59;2.75;;;2.08;;
42754;SDS011;28407;51.830;5.684;2022-08-14T10:42:07;2.75;;;2.22;;
42754;SDS011;28407;51.830;5.684;2022-08-14T10:44:11;2.83;;;2.08;;
42754;SDS011;28407;51.830;5.684;2022-08-14T10:46:15;2.88;;;1.80;;
42754;SDS011;28407;51.830;5.684;2022-08-14T10:48:17;3.53;;;2.33;;
42754;SDS011;28407;51.830;5.684;2022-08-14T10:50:28;3.87;;;2.23;;
42754;SDS011;28407;51.830;5.684;2022-08-14T10:52:33;2.95;;;2.40;;
42754;SDS011;28407;51.830;5.684;2022-08-14T10:55:03;2.63;;;1.85;;
42754;SDS011;28407;51.830;5.684;2022-08-14T10:57:25;2.80;;;1.73;;
42754;SDS011;28407;51.830;5.684;2022-08-14T10:59:27;2.88;;;2.00;;
42754;SDS011;28407;51.830;5.684;2022-08-14T11:01:30;4.43;;;2.20;;
42754;SDS011;28407;51.830;5.684;2022-08-14T11:03:41;2.20;;;1.60;;
42754;SDS011;28407;51.830;5.684;2022-08-14T11:05:48;2.65;;;1.80;;
42754;SDS011;28407;51.830;5.684;2022-08-14T11:07:54;2.50;;;2.00;;
42754;SDS011;28407;51.830;5.684;2022-08-14T11:10:00;2.65;;;2.10;;
42754;SDS011;28407;51.830;5.684;2022-08-14T11:12:04;2.88;;;2.05;;
42754;SDS011;28407;51.830;5.684;2022-08-14T11:14:04;3.60;;;2.07;;
42754;SDS011;28407;51.830;5.684;2022-08-14T11:16:06;3.33;;;2.17;;
42754;SDS011;28407;51.830;5.684;2022-08-14T11:18:09;3.25;;;1.75;;
42754;SDS011;28407;51.830;5.684;2022-08-14T11:20:11;2.67;;;1.63;;
42754;SDS011;28407;51.830;5.684;2022-08-14T11:22:14;2.35;;;1.88;;
42754;SDS011;28407;51.830;5.684;2022-08-14T11:24:17;2.25;;;1.55;;
42754;SDS011;28407;51.830;5.684;2022-08-14T11:26:21;2.35;;;1.67;;
42754;SDS011;28407;51.830;5.684;2022-08-14T11:28:25;3.10;;;1.73;;
42754;SDS011;28407;51.830;5.684;2022-08-14T11:30:28;2.60;;;1.83;;
42754;SDS011;28407;51.830;5.684;2022-08-14T11:32:29;2.58;;;1.70;;
42754;SDS011;28407;51.830;5.684;2022-08-14T11:34:30;2.53;;;1.73;;
42754;SDS011;28407;51.830;5.684;2022-08-14T11:36:34;2.25;;;1.55;;
42754;SDS011;28407;51.830;5.684;2022-08-14T11:38:39;2.13;;;1.40;;
42754;SDS011;28407;51.830;5.684;2022-08-14T11:40:41;2.03;;;1.50;;
42754;SDS011;28407;51.830;5.684;2022-08-14T11:42:44;2.53;;;1.40;;
42754;SDS011;28407;51.830;5.684;2022-08-14T11:44:46;3.20;;;1.60;;
42754;SDS011;28407;51.830;5.684;2022-08-14T11:46:48;2.08;;;1.42;;
42754;SDS011;28407;51.830;5.684;2022-08-14T11:48:52;2.07;;;1.40;;
42754;SDS011;28407;51.830;5.684;2022-08-14T11:50:53;3.53;;;1.58;;
42754;SDS011;28407;51.830;5.684;2022-08-14T11:52:54;2.70;;;2.03;;
42754;SDS011;28407;51.830;5.684;2022-08-14T11:54:56;2.75;;;1.42;;
42754;SDS011;28407;51.830;5.684;2022-08-14T11:56:57;2.25;;;1.58;;
42754;SDS011;28407;51.830;5.684;2022-08-14T11:58:58;2.47;;;1.63;;
42754;SDS011;28407;51.830;5.684;2022-08-14T12:00:59;2.63;;;1.50;;
42754;SDS011;28407;51.830;5.684;2022-08-14T12:03:03;2.58;;;1.55;;
42754;SDS011;28407;51.830;5.684;2022-08-14T12:05:03;2.10;;;1.30;;
42754;SDS011;28407;51.830;5.684;2022-08-14T12:07:05;2.60;;;1.70;;
42754;SDS011;28407;51.830;5.684;2022-08-14T12:09:06;2.88;;;1.90;;
42754;SDS011;28407;51.830;5.684;2022-08-14T12:11:08;3.80;;;1.53;;
42754;SDS011;28407;51.830;5.684;2022-08-14T12:15:26;1.95;;;1.45;;
42754;SDS011;28407;51.830;5.684;2022-08-14T12:17:33;2.63;;;1.63;;
42754;SDS011;28407;51.830;5.684;2022-08-14T12:19:47;2.60;;;1.65;;
42754;SDS011;28407;51.830;5.684;2022-08-14T12:21:50;2.08;;;1.48;;
42754;SDS011;28407;51.830;5.684;2022-08-14T12:24:02;2.03;;;1.33;;
42754;SDS011;28407;51.830;5.684;2022-08-14T12:26:09;2.15;;;1.45;;
42754;SDS011;28407;51.830;5.684;2022-08-14T12:28:16;1.80;;;1.20;;
42754;SDS011;28407;51.830;5.684;2022-08-14T12:30:28;3.97;;;1.70;;
42754;SDS011;28407;51.830;5.684;2022-08-14T12:32:41;1.88;;;1.45;;
42754;SDS011;28407;51.830;5.684;2022-08-14T12:34:50;1.85;;;1.30;;
42754;SDS011;28407;51.830;5.684;2022-08-14T12:37:00;2.10;;;1.58;;
42754;SDS011;28407;51.830;5.684;2022-08-14T12:39:20;2.05;;;1.23;;
42754;SDS011;28407;51.830;5.684;2022-08-14T12:41:26;2.08;;;1.25;;
42754;SDS011;28407;51.830;5.684;2022-08-14T12:43:29;2.17;;;1.48;;
42754;SDS011;28407;51.830;5.684;2022-08-14T12:45:32;2.67;;;1.80;;
42754;SDS011;28407;51.830;5.684;2022-08-14T12:47:35;2.17;;;1.40;;